createdAt,value
2023-02-04T00:01:49.190Z,6.97
2023-02-04T00:04:21.934Z,6.79
2023-02-04T00:06:52.109Z,6.76
2023-02-04T00:09:22.420Z,6.99
2023-02-04T00:11:52.592Z,6.83
2023-02-04T00:14:22.902Z,6.66
2023-02-04T00:16:53.135Z,7.06
2023-02-04T00:19:23.403Z,7.23
2023-02-04T00:21:56.579Z,6.90
2023-02-04T00:24:26.369Z,7.01
2023-02-04T00:26:56.756Z,6.66
2023-02-04T00:29:26.570Z,4.67
2023-02-04T00:31:57.255Z,6.03
2023-02-04T00:34:26.959Z,6.96
2023-02-04T00:36:57.475Z,6.97
2023-02-04T00:39:27.407Z,6.75
2023-02-04T00:41:58.178Z,6.82
2023-02-04T00:44:28.208Z,6.78
2023-02-04T00:46:58.865Z,7.05
2023-02-04T00:49:33.769Z,6.06
2023-02-04T00:52:03.121Z,6.55
2023-02-04T00:54:33.011Z,6.79
2023-02-04T00:57:03.214Z,7.17
2023-02-04T00:59:33.499Z,6.98
2023-02-04T01:02:04.109Z,6.53
2023-02-04T01:04:34.412Z,6.34
2023-02-04T01:07:09.430Z,6.66
2023-02-04T01:09:39.342Z,6.64
2023-02-04T01:12:09.932Z,6.56
2023-02-04T01:14:40.214Z,5.79
2023-02-04T01:17:10.599Z,7.12
2023-02-04T01:19:40.989Z,7.13
2023-02-04T01:22:11.521Z,7.28
2023-02-04T01:24:45.072Z,7.33
2023-02-04T01:27:15.610Z,7.34
2023-02-04T01:29:45.735Z,7.41
2023-02-04T01:32:15.942Z,7.31
2023-02-04T01:34:46.700Z,7.15
2023-02-04T01:37:17.195Z,6.84
2023-02-04T01:39:47.580Z,6.81
2023-02-04T01:42:21.403Z,6.87
2023-02-04T01:44:52.171Z,6.76
2023-02-04T01:47:22.953Z,7.03
2023-02-04T01:49:54.004Z,6.57
2023-02-04T01:52:22.921Z,6.96
2023-02-04T01:54:52.876Z,6.53
2023-02-04T01:57:22.949Z,6.21
2023-02-04T01:59:55.885Z,6.92
2023-02-04T02:02:46.478Z,6.41
2023-02-04T02:05:20.657Z,6.47
2023-02-04T02:07:53.619Z,6.89
2023-02-04T02:10:20.035Z,6.54
2023-02-04T02:12:46.680Z,6.82
2023-02-04T02:15:13.545Z,6.82
2023-02-04T02:17:44.846Z,6.57
2023-02-04T02:20:13.552Z,5.17
2023-02-04T02:23:07.097Z,7.02
2023-02-04T02:25:37.666Z,6.92
2023-02-04T02:28:07.049Z,6.84
2023-02-04T02:30:33.743Z,6.85
2023-02-04T02:33:05.422Z,6.47
2023-02-04T02:35:33.851Z,6.32
2023-02-04T02:38:00.179Z,6.19
2023-02-04T02:40:26.455Z,6.57
2023-02-04T02:42:57.832Z,6.65
2023-02-04T02:45:29.896Z,6.44
2023-02-04T02:47:58.580Z,6.51
2023-02-04T02:50:27.185Z,6.61
2023-02-04T02:52:54.818Z,6.67
2023-02-04T02:55:23.772Z,6.71
2023-02-04T02:57:51.096Z,6.68
2023-02-04T03:00:23.288Z,5.25
2023-02-04T03:03:21.555Z,6.81
2023-02-04T03:05:49.858Z,6.87
2023-02-04T03:08:20.303Z,6.93
2023-02-04T03:10:47.057Z,7.19
2023-02-04T03:13:14.289Z,6.38
2023-02-04T03:15:41.855Z,6.91
2023-02-04T03:18:14.917Z,5.53
2023-02-04T03:20:41.752Z,6.76
2023-02-04T03:23:08.283Z,6.73
2023-02-04T03:25:34.452Z,6.64
2023-02-04T03:28:04.651Z,6.87
2023-02-04T03:30:33.784Z,6.52
2023-02-04T03:33:04.417Z,6.89
2023-02-04T03:35:35.850Z,6.74
2023-02-04T03:38:06.346Z,6.97
2023-02-04T03:40:36.009Z,7.00
2023-02-04T03:43:06.444Z,6.88
2023-02-04T03:45:45.243Z,7.22
2023-02-04T03:48:12.127Z,7.10
2023-02-04T03:50:38.925Z,7.36
2023-02-04T03:53:10.350Z,7.48
2023-02-04T03:55:40.341Z,7.30
2023-02-04T03:58:11.103Z,7.45
2023-02-04T04:00:41.606Z,7.17
2023-02-04T04:03:13.860Z,6.67
2023-02-04T04:05:44.322Z,7.20
2023-02-04T04:08:14.880Z,7.58
2023-02-04T04:10:45.480Z,6.97
2023-02-04T04:13:15.854Z,6.77
2023-02-04T04:15:46.446Z,6.89
2023-02-04T04:18:16.904Z,6.72
2023-02-04T04:20:49.092Z,7.44
2023-02-04T04:23:19.224Z,7.44
2023-02-04T04:25:49.097Z,7.54
2023-02-04T04:28:19.526Z,7.20
2023-02-04T04:30:49.693Z,7.19
2023-02-04T04:33:19.941Z,7.32
2023-02-04T04:35:50.033Z,7.07
2023-02-04T04:38:23.609Z,6.78
2023-02-04T04:40:53.589Z,6.80
2023-02-04T04:43:24.381Z,7.05
2023-02-04T04:45:54.830Z,6.95
2023-02-04T04:48:24.976Z,7.05
2023-02-04T04:50:55.369Z,6.85
2023-02-04T04:53:25.677Z,7.22
2023-02-04T04:55:59.257Z,7.21
2023-02-04T04:58:29.485Z,6.51
2023-02-04T05:00:59.637Z,6.97
2023-02-04T05:03:30.074Z,7.17
2023-02-04T05:06:00.440Z,7.41
2023-02-04T05:08:30.818Z,7.50
2023-02-04T05:11:01.923Z,7.47
2023-02-04T05:13:36.343Z,7.35
2023-02-04T05:16:06.779Z,7.46
2023-02-04T05:18:37.540Z,7.36
2023-02-04T05:21:07.690Z,7.44
2023-02-04T05:23:37.700Z,6.81
2023-02-04T05:26:08.669Z,7.41
2023-02-04T05:28:38.916Z,7.55
2023-02-04T05:31:13.618Z,7.34
2023-02-04T05:33:44.167Z,7.12
2023-02-04T05:36:14.496Z,7.37
2023-02-04T05:38:44.707Z,7.32
2023-02-04T05:41:14.506Z,7.44
2023-02-04T05:43:45.066Z,6.51
2023-02-04T05:46:15.538Z,6.06
2023-02-04T05:48:50.367Z,5.03
2023-02-04T05:51:21.778Z,5.34
2023-02-04T05:53:52.183Z,5.05
2023-02-04T05:56:28.071Z,5.35
2023-02-04T05:58:59.274Z,5.86
2023-02-04T06:01:30.456Z,5.39
2023-02-04T06:04:00.685Z,6.19
2023-02-04T06:06:31.124Z,5.40
2023-02-04T06:09:02.196Z,5.10
2023-02-04T06:11:32.022Z,5.28
2023-02-04T06:14:04.314Z,4.61
2023-02-04T06:16:35.114Z,5.67
2023-02-04T06:19:05.429Z,4.83
2023-02-04T06:21:37.999Z,5.16
2023-02-04T06:24:09.618Z,5.73
2023-02-04T06:26:40.385Z,6.30
2023-02-04T06:29:10.754Z,5.53
2023-02-04T06:31:41.748Z,5.86
2023-02-04T06:34:11.495Z,6.10
2023-02-04T06:36:41.569Z,6.27
2023-02-04T06:39:15.626Z,6.32
2023-02-04T06:41:47.004Z,6.44
2023-02-04T06:44:17.473Z,6.58
2023-02-04T06:46:47.369Z,6.32
2023-02-04T06:49:17.683Z,6.44
2023-02-04T06:51:48.784Z,6.64
2023-02-04T06:54:18.575Z,6.32
2023-02-04T06:56:52.572Z,6.58
2023-02-04T06:59:24.671Z,6.74
2023-02-04T07:01:53.071Z,6.44
2023-02-04T07:04:23.281Z,6.14
2023-02-04T07:06:54.047Z,6.22
2023-02-04T07:09:23.595Z,6.64
2023-02-04T07:11:53.905Z,6.65
2023-02-04T07:14:27.178Z,6.58
2023-02-04T07:16:58.314Z,6.57
2023-02-04T07:19:28.685Z,6.45
2023-02-04T07:21:59.132Z,6.55
2023-02-04T07:24:29.556Z,6.77
2023-02-04T07:27:02.442Z,6.66
2023-02-04T07:29:30.499Z,6.79
2023-02-04T07:32:06.797Z,6.68
2023-02-04T07:34:36.916Z,6.60
2023-02-04T07:37:06.745Z,6.76
2023-02-04T07:39:36.826Z,6.68
2023-02-04T07:42:06.627Z,6.80
2023-02-04T07:44:37.987Z,6.87
2023-02-04T07:47:07.200Z,6.88
2023-02-04T07:49:41.545Z,7.00
2023-02-04T07:52:11.796Z,6.51
2023-02-04T07:54:42.227Z,7.08
2023-02-04T07:57:15.209Z,6.97
2023-02-04T07:59:46.259Z,6.65
2023-02-04T08:02:16.382Z,6.74
2023-02-04T08:04:47.381Z,5.27
2023-02-04T08:07:17.898Z,6.26
2023-02-04T08:09:47.817Z,6.75
2023-02-04T08:12:18.464Z,6.61
2023-02-04T08:14:52.122Z,6.46
2023-02-04T08:17:22.956Z,6.83
2023-02-04T08:19:53.529Z,6.48
2023-02-04T08:22:23.790Z,6.62
2023-02-04T08:24:54.432Z,6.45
2023-02-04T08:27:24.419Z,6.84
2023-02-04T08:29:54.685Z,6.04
2023-02-04T08:32:28.481Z,5.72
2023-02-04T08:34:57.960Z,6.43
2023-02-04T08:37:27.465Z,6.13
2023-02-04T08:39:58.061Z,6.58
2023-02-04T08:42:28.684Z,7.32
2023-02-04T08:44:58.836Z,7.86
2023-02-04T08:47:29.010Z,7.13
2023-02-04T08:49:58.722Z,7.26
2023-02-04T08:52:28.633Z,6.86
2023-02-04T08:54:58.659Z,7.36
2023-02-04T08:57:28.642Z,6.89
2023-02-04T09:00:02.421Z,7.42
2023-02-04T09:02:31.813Z,7.97
2023-02-04T09:05:02.813Z,6.41
2023-02-04T09:07:33.163Z,6.89
2023-02-04T09:10:04.005Z,7.17
2023-02-04T09:12:33.838Z,7.22
2023-02-04T09:15:04.765Z,5.63
2023-02-04T09:17:39.739Z,7.11
2023-02-04T09:20:10.100Z,7.34
2023-02-04T09:22:39.675Z,7.85
2023-02-04T09:25:09.888Z,2.74
2023-02-04T09:27:39.658Z,6.34
2023-02-04T09:30:10.754Z,7.67
2023-02-04T09:32:40.834Z,7.10
2023-02-04T09:35:15.062Z,7.36
2023-02-04T09:37:45.527Z,7.92
2023-02-04T09:40:17.366Z,7.15
2023-02-04T09:42:50.392Z,7.25
2023-02-04T09:45:19.712Z,6.74
2023-02-04T09:47:48.527Z,7.17
2023-02-04T09:50:20.828Z,7.45
2023-02-04T09:52:51.022Z,7.61
2023-02-04T09:55:21.260Z,7.42
2023-02-04T09:57:49.892Z,7.09
2023-02-04T10:00:22.701Z,7.06
2023-02-04T10:02:50.382Z,7.60
2023-02-04T10:05:29.884Z,7.45
2023-02-04T10:07:56.371Z,7.37
2023-02-04T10:10:27.026Z,6.80
2023-02-04T10:13:01.445Z,4.98
2023-02-04T10:15:29.065Z,7.34
2023-02-04T10:18:06.599Z,6.99
2023-02-04T10:20:33.242Z,6.70
2023-02-04T10:23:01.353Z,7.37
2023-02-04T10:25:32.090Z,7.74
2023-02-04T10:28:06.997Z,7.89
2023-02-04T10:30:42.915Z,7.87
2023-02-04T10:33:24.022Z,8.03
2023-02-04T10:35:56.467Z,6.77
2023-02-04T10:38:23.542Z,7.54
2023-02-04T10:41:05.370Z,8.01
2023-02-04T10:43:35.935Z,8.06
2023-02-04T10:46:02.989Z,7.97
2023-02-04T10:48:30.307Z,7.70
2023-02-04T10:50:58.305Z,7.22
2023-02-04T10:53:47.648Z,6.97
2023-02-04T10:56:20.000Z,7.49
2023-02-04T10:58:53.669Z,8.15
2023-02-04T11:01:26.159Z,8.00
2023-02-04T11:03:53.498Z,8.28
2023-02-04T11:06:23.788Z,8.09
2023-02-04T11:08:54.679Z,6.49
2023-02-04T11:11:25.737Z,7.95
2023-02-04T11:13:51.885Z,6.88
2023-02-04T11:16:18.096Z,6.70
2023-02-04T11:18:54.891Z,7.45
2023-02-04T11:21:34.018Z,6.75
2023-02-04T11:24:15.398Z,7.58
2023-02-04T11:26:47.707Z,7.56
2023-02-04T11:29:37.996Z,7.32
2023-02-04T11:32:27.005Z,7.28
2023-02-04T11:35:08.186Z,6.75
2023-02-04T11:37:41.380Z,7.52
2023-02-04T11:40:32.834Z,7.68
2023-02-04T11:43:15.287Z,7.74
2023-02-04T11:45:46.587Z,7.72
2023-02-04T11:48:25.949Z,7.96
2023-02-04T11:51:00.593Z,8.27
2023-02-04T11:53:31.138Z,7.28
2023-02-04T11:56:05.635Z,7.98
2023-02-04T11:58:32.683Z,8.06
2023-02-04T12:01:02.819Z,7.71
2023-02-04T12:03:34.312Z,7.81
2023-02-04T12:06:04.815Z,7.86
2023-02-04T12:08:36.071Z,7.42
2023-02-04T12:11:10.525Z,7.44
2023-02-04T12:13:52.918Z,6.92
2023-02-04T12:16:19.496Z,7.73
2023-02-04T12:18:46.142Z,7.99
2023-02-04T12:21:20.710Z,8.23
2023-02-04T12:23:48.265Z,7.54
2023-02-04T12:26:19.671Z,7.44
2023-02-04T12:28:51.052Z,7.68
2023-02-04T12:31:22.293Z,7.12
2023-02-04T12:33:53.626Z,7.27
2023-02-04T12:36:26.847Z,7.86
2023-02-04T12:38:59.399Z,7.38
2023-02-04T12:41:29.929Z,7.49
2023-02-04T12:44:00.624Z,7.37
2023-02-04T12:46:30.453Z,7.66
2023-02-04T12:49:01.481Z,6.67
2023-02-04T12:51:32.492Z,7.25
2023-02-04T12:54:02.092Z,7.59
2023-02-04T12:56:37.583Z,7.92
2023-02-04T12:59:07.495Z,8.00
2023-02-04T13:01:37.796Z,8.09
2023-02-04T13:04:11.468Z,7.94
2023-02-04T13:06:41.927Z,7.97
2023-02-04T13:09:12.736Z,7.22
2023-02-04T13:11:43.427Z,7.85
2023-02-04T13:14:13.770Z,7.87
2023-02-04T13:16:44.643Z,7.20
2023-02-04T13:19:15.146Z,7.88
2023-02-04T13:21:47.792Z,8.04
2023-02-04T13:24:18.308Z,7.88
2023-02-04T13:26:49.213Z,7.96
2023-02-04T13:29:20.016Z,8.04
2023-02-04T13:31:50.358Z,8.14
2023-02-04T13:34:20.796Z,8.20
2023-02-04T13:36:51.300Z,8.25
2023-02-04T13:39:23.048Z,8.33
2023-02-04T13:41:53.572Z,8.17
2023-02-04T13:44:24.462Z,7.68
2023-02-04T13:46:55.092Z,7.85
2023-02-04T13:49:25.934Z,7.78
2023-02-04T13:51:56.044Z,8.21
2023-02-04T13:54:25.988Z,8.42
2023-02-04T13:56:57.044Z,8.24
2023-02-04T13:59:27.109Z,8.05
2023-02-04T14:01:57.843Z,7.95
2023-02-04T14:04:27.618Z,8.07
2023-02-04T14:06:59.236Z,7.95
2023-02-04T14:09:29.528Z,8.26
2023-02-04T14:12:00.125Z,8.41
2023-02-04T14:14:30.602Z,8.47
2023-02-04T14:17:00.945Z,8.09
2023-02-04T14:19:30.979Z,8.11
2023-02-04T14:22:02.123Z,8.33
2023-02-04T14:24:35.314Z,8.23
2023-02-04T14:27:07.007Z,8.30
2023-02-04T14:29:35.342Z,8.05
2023-02-04T14:32:05.839Z,7.91
2023-02-04T14:34:36.015Z,7.96
2023-02-04T14:37:06.076Z,8.25
2023-02-04T14:39:36.154Z,8.25
2023-02-04T14:42:08.137Z,8.10
2023-02-04T14:44:38.726Z,8.21
2023-02-04T14:47:08.652Z,8.23
2023-02-04T14:49:38.962Z,7.69
2023-02-04T14:52:10.706Z,7.95
2023-02-04T14:54:39.745Z,8.14
2023-02-04T14:57:11.241Z,8.21
2023-02-04T14:59:40.277Z,7.87
2023-02-04T15:02:11.075Z,7.02
2023-02-04T15:04:42.342Z,8.03
2023-02-04T15:07:12.398Z,8.09
2023-02-04T15:09:44.048Z,8.08
2023-02-04T15:12:14.586Z,8.09
2023-02-04T15:14:44.956Z,7.86
2023-02-04T15:17:16.239Z,8.06
2023-02-04T15:19:46.990Z,7.23
2023-02-04T15:22:16.882Z,7.63
2023-02-04T15:24:48.208Z,8.20
2023-02-04T15:27:19.686Z,8.05
2023-02-04T15:29:50.256Z,7.92
2023-02-04T15:32:20.506Z,8.07
2023-02-04T15:34:50.841Z,7.94
2023-02-04T15:37:21.364Z,7.96
2023-02-04T15:39:51.328Z,7.95
2023-02-04T15:42:21.837Z,7.07
2023-02-04T15:44:54.228Z,7.86
2023-02-04T15:47:23.922Z,7.96
2023-02-04T15:49:54.268Z,7.87
2023-02-04T15:52:25.824Z,7.80
2023-02-04T15:54:55.073Z,6.15
2023-02-04T15:57:25.112Z,7.30
2023-02-04T15:59:55.391Z,7.71
2023-02-04T16:02:31.380Z,7.76
2023-02-04T16:04:59.791Z,7.80
2023-02-04T16:07:29.887Z,7.72
2023-02-04T16:10:00.129Z,7.65
2023-02-04T16:12:30.176Z,7.39
2023-02-04T16:15:00.496Z,7.74
2023-02-04T16:17:31.122Z,7.64
2023-02-04T16:20:03.123Z,4.89
2023-02-04T16:22:32.992Z,7.58
2023-02-04T16:25:03.446Z,6.73
2023-02-04T16:27:33.211Z,7.63
2023-02-04T16:30:04.169Z,7.00
2023-02-04T16:32:33.880Z,7.27
2023-02-04T16:35:04.427Z,6.97
2023-02-04T16:37:37.015Z,7.47
2023-02-04T16:40:10.456Z,7.39
2023-02-04T16:42:37.528Z,7.38
2023-02-04T16:45:09.109Z,6.99
2023-02-04T16:47:39.125Z,6.91
2023-02-04T16:50:09.884Z,6.91
2023-02-04T16:52:39.958Z,7.07
2023-02-04T16:55:10.880Z,7.27
2023-02-04T16:57:42.595Z,7.26
2023-02-04T17:00:13.967Z,7.17
2023-02-04T17:02:42.854Z,7.03
2023-02-04T17:05:13.539Z,7.02
2023-02-04T17:07:44.102Z,6.83
2023-02-04T17:10:15.350Z,7.13
2023-02-04T17:12:45.408Z,7.21
2023-02-04T17:15:16.333Z,1.81
2023-02-04T17:17:46.385Z,7.06
2023-02-04T17:20:16.390Z,6.92
2023-02-04T17:22:51.424Z,6.77
2023-02-04T17:25:20.260Z,6.83
2023-02-04T17:27:51.997Z,6.58
2023-02-04T17:30:20.890Z,6.61
2023-02-04T17:32:51.336Z,6.76
2023-02-04T17:35:21.991Z,6.58
2023-02-04T17:37:53.342Z,4.99
2023-02-04T17:40:26.348Z,6.29
2023-02-04T17:42:55.728Z,6.26
2023-02-04T17:45:26.799Z,5.66
2023-02-04T17:47:58.304Z,5.55
2023-02-04T17:50:28.864Z,5.54
2023-02-04T17:52:59.277Z,5.61
2023-02-04T17:55:31.133Z,6.33
2023-02-04T17:58:15.559Z,6.35
2023-02-04T18:00:44.414Z,6.49
2023-02-04T18:03:12.922Z,4.79
2023-02-04T18:05:47.626Z,6.26
2023-02-04T18:08:25.541Z,5.45
2023-02-04T18:10:53.693Z,6.11
2023-02-04T18:13:34.169Z,5.00
2023-02-04T18:16:02.238Z,5.10
2023-02-04T18:18:36.914Z,5.66
2023-02-04T18:21:27.866Z,4.90
2023-02-04T18:24:10.569Z,5.54
2023-02-04T18:26:45.036Z,5.76
2023-02-04T18:29:21.108Z,5.17
2023-02-04T18:31:56.637Z,5.49
2023-02-04T18:34:39.616Z,5.72
2023-02-04T18:37:41.635Z,5.28
2023-02-04T18:40:27.356Z,4.84
2023-02-04T18:43:09.531Z,5.33
2023-02-04T18:45:40.710Z,5.42
2023-02-04T18:48:20.266Z,5.19
2023-02-04T18:50:53.364Z,5.46
2023-02-04T18:53:25.909Z,4.43
2023-02-04T18:55:54.456Z,5.88
2023-02-04T18:58:28.456Z,4.95
2023-02-04T19:01:00.471Z,5.38
2023-02-04T19:03:29.068Z,5.50
2023-02-04T19:06:00.845Z,4.56
2023-02-04T19:08:43.162Z,5.03
2023-02-04T19:11:24.067Z,5.13
2023-02-04T19:13:57.679Z,5.05
2023-02-04T19:16:35.908Z,5.05
2023-02-04T19:19:12.973Z,5.49
2023-02-04T19:21:49.843Z,5.54
2023-02-04T19:24:24.613Z,5.53
2023-02-04T19:26:56.674Z,5.64
2023-02-04T19:29:40.783Z,5.72
2023-02-04T19:32:28.549Z,5.21
2023-02-04T19:35:12.611Z,5.53
2023-02-04T19:37:48.390Z,5.27
2023-02-04T19:40:24.501Z,5.49
2023-02-04T19:43:22.133Z,4.76
2023-02-04T19:45:53.276Z,5.42
2023-02-04T19:48:32.100Z,5.39
2023-02-04T19:51:20.580Z,5.23
2023-02-04T19:53:51.301Z,5.45
2023-02-04T19:56:46.997Z,5.16
2023-02-04T19:59:33.412Z,5.54
2023-02-04T20:02:06.397Z,5.41
2023-02-04T20:04:42.452Z,5.43
2023-02-04T20:07:19.081Z,5.54
2023-02-04T20:09:53.949Z,5.38
2023-02-04T20:12:28.211Z,5.38
2023-02-04T20:15:17.883Z,5.24
2023-02-04T20:17:49.725Z,5.35
2023-02-04T20:20:29.269Z,5.23
2023-02-04T20:23:01.330Z,5.03
2023-02-04T20:25:37.979Z,5.39
2023-02-04T20:28:36.205Z,5.33
2023-02-04T20:31:15.585Z,4.68
2023-02-04T20:33:50.358Z,2.93
2023-02-04T20:36:39.997Z,5.20
2023-02-04T20:39:27.517Z,4.12
2023-02-04T20:42:24.194Z,4.73
2023-02-04T20:44:57.486Z,3.57
2023-02-04T20:47:28.749Z,3.84
2023-02-04T20:49:59.440Z,5.02
2023-02-04T20:53:01.619Z,5.36
2023-02-04T20:55:34.545Z,5.22
2023-02-04T20:58:11.552Z,5.38
2023-02-04T21:00:43.309Z,5.46
2023-02-04T21:03:19.382Z,4.86
2023-02-04T21:05:51.880Z,5.02
2023-02-04T21:08:34.790Z,5.46
2023-02-04T21:11:03.200Z,5.42
2023-02-04T21:13:32.799Z,5.51
2023-02-04T21:16:03.730Z,5.51
2023-02-04T21:18:34.436Z,5.11
2023-02-04T21:21:07.027Z,5.56
2023-02-04T21:23:38.555Z,5.54
2023-02-04T21:26:09.400Z,5.55
2023-02-04T21:28:39.567Z,5.33
2023-02-04T21:31:10.932Z,5.54
2023-02-04T21:33:40.073Z,4.44
2023-02-04T21:36:10.128Z,5.56
2023-02-04T21:38:41.078Z,5.26
2023-02-04T21:41:16.244Z,3.81
2023-02-04T21:43:47.275Z,5.67
2023-02-04T21:46:17.992Z,5.51
2023-02-04T21:48:47.159Z,5.61
2023-02-04T21:51:17.557Z,5.47
2023-02-04T21:53:47.691Z,5.56
2023-02-04T21:56:17.764Z,5.48
2023-02-04T21:58:49.976Z,4.59
2023-02-04T22:01:20.680Z,4.95
2023-02-04T22:03:50.662Z,5.26
2023-02-04T22:06:20.979Z,5.29
2023-02-04T22:08:51.611Z,5.25
2023-02-04T22:11:22.036Z,5.48
2023-02-04T22:13:52.271Z,5.43
2023-02-04T22:16:25.842Z,5.61
2023-02-04T22:18:56.183Z,5.61
2023-02-04T22:21:26.479Z,5.54
2023-02-04T22:23:56.220Z,5.39
2023-02-04T22:26:26.698Z,5.20
2023-02-04T22:28:56.820Z,5.13
2023-02-04T22:31:27.096Z,5.28
2023-02-04T22:33:56.989Z,5.30
2023-02-04T22:36:26.988Z,4.61
2023-02-04T22:38:56.836Z,5.57
2023-02-04T22:41:27.578Z,5.29
2023-02-04T22:44:00.807Z,5.49
2023-02-04T22:46:31.946Z,5.56
2023-02-04T22:49:05.164Z,5.50
2023-02-04T22:51:34.394Z,5.57
2023-02-04T22:54:04.813Z,5.15
2023-02-04T22:56:34.442Z,5.44
2023-02-04T22:59:04.596Z,5.37
2023-02-04T23:01:36.586Z,5.51
2023-02-04T23:04:06.410Z,5.24
2023-02-04T23:06:37.075Z,4.96
2023-02-04T23:09:07.172Z,5.38
2023-02-04T23:11:38.285Z,5.26
2023-02-04T23:14:08.588Z,5.12
2023-02-04T23:16:39.092Z,5.10
2023-02-04T23:19:14.091Z,4.83
2023-02-04T23:21:44.382Z,5.16
2023-02-04T23:24:23.436Z,5.03
2023-02-04T23:26:57.902Z,5.14
2023-02-04T23:29:31.459Z,5.34
2023-02-04T23:31:58.233Z,5.46
2023-02-04T23:34:26.351Z,5.25
2023-02-04T23:36:56.990Z,4.87
2023-02-04T23:39:27.474Z,5.56
2023-02-04T23:41:57.537Z,5.58
2023-02-04T23:44:31.440Z,5.54
2023-02-04T23:47:02.184Z,5.48
2023-02-04T23:49:32.138Z,5.06
2023-02-04T23:52:02.711Z,5.50
2023-02-04T23:54:33.521Z,4.99
2023-02-04T23:57:03.551Z,5.55
2023-02-04T23:59:35.510Z,5.52
